Time;durP1;ratioP1;P1;durP2;ratioP2;P2;SDS_P1;SDS_P2;PMS_P1;PMS_P2;Temp;Humidity;BMP_temperature;BMP_pressure;BME280_temperature;BME280_humidity;BME280_pressure;Samples;Min_cycle;Max_cycle;Signal;HPM_P1;HPM_P2
2021/06/15 00:00:01;;;;;;;9.57;2.40;;;15.50;86.40;;;;;;4855531;29;20056;-81
2021/06/15 00:02:32;;;;;;;8.90;2.17;;;15.50;86.40;;;;;;4857712;29;20119;-83
2021/06/15 00:04:58;;;;;;;11.43;2.05;;;15.40;86.50;;;;;;4876022;29;20044;-81
2021/06/15 00:07:25;;;;;;;7.30;2.25;;;15.40;86.60;;;;;;4857990;29;20040;-84
2021/06/15 00:09:52;;;;;;;9.10;2.10;;;15.40;86.80;;;;;;4871045;29;20057;-83
2021/06/15 00:12:19;;;;;;;9.15;2.15;;;15.40;86.90;;;;;;4857291;29;20401;-82
2021/06/15 00:14:45;;;;;;;7.70;2.05;;;15.40;87.10;;;;;;4871119;29;20095;-82
2021/06/15 00:17:11;;;;;;;9.68;2.10;;;15.40;87.30;;;;;;4856788;29;20049;-85
2021/06/15 00:19:37;;;;;;;9.27;2.03;;;15.30;87.20;;;;;;4856684;29;20077;-82
2021/06/15 00:22:04;;;;;;;12.13;2.38;;;15.30;87.40;;;;;;4860566;29;20041;-85
2021/06/15 00:24:41;;;;;;;9.02;2.67;;;15.30;87.40;;;;;;4848485;29;20056;-82
2021/06/15 00:27:09;;;;;;;12.63;3.35;;;15.30;87.50;;;;;;4877303;29;20029;-85
2021/06/15 00:29:35;;;;;;;11.68;2.92;;;15.30;87.80;;;;;;4841562;29;20048;-83
2021/06/15 00:32:04;;;;;;;8.73;2.75;;;15.20;87.50;;;;;;4842702;29;20132;-82
2021/06/15 00:34:30;;;;;;;9.68;2.67;;;15.20;87.70;;;;;;4842472;29;21639;-84
2021/06/15 00:36:59;;;;;;;11.02;2.60;;;15.20;87.90;;;;;;4857331;29;20079;-83
2021/06/15 00:39:35;;;;;;;12.90;2.75;;;15.20;88.00;;;;;;4861788;29;20510;-83
2021/06/15 00:42:01;;;;;;;12.50;2.30;;;15.20;88.10;;;;;;4862465;29;20083;-84
2021/06/15 00:44:27;;;;;;;13.68;2.80;;;15.10;88.20;;;;;;4852389;29;20036;-84
2021/06/15 00:46:53;;;;;;;9.73;2.28;;;15.10;88.30;;;;;;4869333;29;20041;-84
2021/06/15 00:49:26;;;;;;;12.48;2.50;;;15.10;88.30;;;;;;4855480;29;20049;-84
2021/06/15 00:51:54;;;;;;;11.90;2.58;;;15.10;88.60;;;;;;4869837;29;20052;-82
2021/06/15 00:54:20;;;;;;;12.10;2.40;;;15.10;88.80;;;;;;4877562;29;20060;-81
2021/06/15 00:56:46;;;;;;;15.85;2.75;;;15.10;88.80;;;;;;4879321;29;20608;-84
2021/06/15 00:59:12;;;;;;;8.77;2.22;;;15.10;88.80;;;;;;4839245;29;20041;-84
2021/06/15 01:01:38;;;;;;;12.32;2.40;;;15.10;88.70;;;;;;4869964;29;20044;-81
2021/06/15 01:04:04;;;;;;;10.32;1.55;;;15.10;89.00;;;;;;4878410;29;20044;-85
2021/06/15 01:06:55;;;;;;;8.80;2.33;;;15.10;88.90;;;;;;4871929;29;20186;-84
2021/06/15 01:09:47;;;;;;;13.50;2.33;;;15.10;89.10;;;;;;4889033;29;20918;-84
2021/06/15 01:12:39;;;;;;;11.77;1.67;;;15.10;89.20;;;;;;4873612;29;20324;-85
2021/06/15 01:15:12;;;;;;;15.32;2.10;;;15.00;89.10;;;;;;4871293;29;20055;-84
2021/06/15 01:18:05;;;;;;;13.50;2.53;;;15.10;89.20;;;;;;4879743;29;20047;-81
2021/06/15 01:20:46;;;;;;;13.48;1.70;;;15.10;89.30;;;;;;4886090;29;20362;-80
2021/06/15 01:23:49;;;;;;;12.00;2.35;;;15.00;89.40;;;;;;4903477;29;20064;-81
2021/06/15 01:26:29;;;;;;;14.02;2.05;;;15.00;89.40;;;;;;4889191;29;20048;-82
2021/06/15 01:29:14;;;;;;;10.52;2.10;;;14.90;89.20;;;;;;4901896;29;20050;-84
2021/06/15 01:31:50;;;;;;;14.98;2.00;;;14.90;89.30;;;;;;4873561;29;20373;-81
2021/06/15 01:34:24;;;;;;;12.65;1.85;;;14.90;89.50;;;;;;4884276;29;20041;-81
2021/06/15 01:37:01;;;;;;;14.68;2.38;;;14.90;89.60;;;;;;4881724;29;20064;-82
2021/06/15 01:39:36;;;;;;;9.45;1.70;;;14.80;89.70;;;;;;4889223;29;20414;-81
2021/06/15 01:42:31;;;;;;;12.13;1.98;;;14.90;89.80;;;;;;4869258;29;20052;-83
2021/06/15 01:45:08;;;;;;;13.82;2.30;;;14.80;89.60;;;;;;4872444;29;20053;-81
2021/06/15 01:47:36;;;;;;;12.00;1.58;;;14.70;89.80;;;;;;4886463;29;20681;-84
2021/06/15 01:50:06;;;;;;;10.60;1.88;;;14.70;90.00;;;;;;4883447;29;20045;-83
2021/06/15 01:52:37;;;;;;;11.45;1.50;;;14.70;90.00;;;;;;4857732;29;20080;-82
2021/06/15 01:55:06;;;;;;;17.30;2.58;;;14.70;90.00;;;;;;4857905;29;20416;-83
2021/06/15 01:57:33;;;;;;;12.95;2.00;;;14.70;90.10;;;;;;4867945;29;20444;-81
2021/06/15 02:00:09;;;;;;;12.70;1.95;;;14.60;90.10;;;;;;4869017;29;20780;-82
2021/06/15 02:02:37;;;;;;;11.48;1.70;;;14.60;90.10;;;;;;4871659;29;20039;-84
2021/06/15 02:05:07;;;;;;;11.98;2.40;;;14.60;90.10;;;;;;4875531;29;20032;-84
2021/06/15 02:07:41;;;;;;;12.95;1.92;;;14.50;90.10;;;;;;4869606;29;20044;-83
2021/06/15 02:10:11;;;;;;;13.35;1.98;;;14.40;90.30;;;;;;4870598;29;20047;-83
2021/06/15 02:12:42;;;;;;;9.85;1.73;;;14.40;90.30;;;;;;4871302;29;20041;-84
2021/06/15 02:15:29;;;;;;;9.02;1.98;;;14.30;90.50;;;;;;4858872;29;20068;-84
2021/06/15 02:17:57;;;;;;;13.15;2.55;;;14.30;90.60;;;;;;4843172;29;20088;-82
2021/06/15 02:20:27;;;;;;;11.68;2.08;;;14.30;90.70;;;;;;4873022;29;20048;-83
2021/06/15 02:22:55;;;;;;;12.38;1.55;;;14.30;90.80;;;;;;4883613;29;20055;-85
2021/06/15 02:25:42;;;;;;;14.18;1.90;;;14.30;90.70;;;;;;4844805;29;21160;-82
2021/06/15 02:28:28;;;;;;;12.93;2.28;;;14.20;90.80;;;;;;4842342;29;20100;-83
2021/06/15 02:30:58;;;;;;;16.33;2.47;;;14.20;90.80;;;;;;4850817;29;20416;-83
2021/06/15 02:33:27;;;;;;;7.50;1.50;;;14.20;91.00;;;;;;4874123;29;20036;-81
2021/06/15 02:36:05;;;;;;;9.30;1.73;;;14.20;91.00;;;;;;4872828;29;20052;-85
2021/06/15 02:38:41;;;;;;;19.27;2.17;;;14.20;91.10;;;;;;4884848;29;20210;-84
2021/06/15 02:41:13;;;;;;;16.35;2.80;;;14.20;91.10;;;;;;4889801;29;20060;-84
2021/06/15 02:43:40;;;;;;;12.90;2.05;;;14.20;91.10;;;;;;4885609;29;20040;-84
2021/06/15 02:46:09;;;;;;;17.13;2.42;;;14.20;91.10;;;;;;4849213;29;20040;-83
2021/06/15 02:48:37;;;;;;;13.35;1.85;;;14.20;91.20;;;;;;4872273;29;20574;-84
2021/06/15 02:51:05;;;;;;;13.70;2.10;;;14.20;91.10;;;;;;4852920;29;20037;-82
2021/06/15 02:53:44;;;;;;;16.83;2.67;;;14.20;91.10;;;;;;4854636;29;20476;-81
2021/06/15 02:56:15;;;;;;;13.60;2.30;;;14.20;91.10;;;;;;4855154;29;20135;-84
2021/06/15 02:58:42;;;;;;;14.90;2.15;;;14.20;91.10;;;;;;4867221;29;20048;-84
2021/06/15 03:01:08;;;;;;;15.32;2.42;;;14.10;91.10;;;;;;4839540;29;20060;-84
2021/06/15 03:03:37;;;;;;;11.15;1.67;;;14.10;91.00;;;;;;4853645;29;20037;-82
2021/06/15 03:06:05;;;;;;;6.20;1.60;;;14.10;91.10;;;;;;4867389;29;20051;-85
2021/06/15 03:08:31;;;;;;;17.27;2.00;;;14.10;91.20;;;;;;4871379;29;20085;-83
2021/06/15 03:10:56;;;;;;;11.23;2.20;;;14.10;91.30;;;;;;4868774;29;21222;-84
2021/06/15 03:13:38;;;;;;;13.75;2.28;;;14.00;91.30;;;;;;4874194;29;20119;-81
2021/06/15 03:16:07;;;;;;;13.13;1.90;;;14.00;91.50;;;;;;4886407;29;20044;-81
2021/06/15 03:18:38;;;;;;;13.65;1.60;;;14.00;91.40;;;;;;4869401;29;20552;-84
2021/06/15 03:21:08;;;;;;;8.80;2.03;;;14.00;91.40;;;;;;4875201;29;20048;-84
2021/06/15 03:23:49;;;;;;;10.30;1.65;;;14.00;91.50;;;;;;4869412;29;20062;-81
2021/06/15 03:26:22;;;;;;;14.23;1.85;;;13.90;91.50;;;;;;4870215;29;20092;-84
2021/06/15 03:29:12;;;;;;;11.82;1.73;;;13.90;91.40;;;;;;4868945;29;20052;-82
2021/06/15 03:32:04;;;;;;;11.65;1.73;;;13.90;91.50;;;;;;4858128;29;20059;-82
2021/06/15 03:34:31;;;;;;;;;;;13.90;91.40;;;;;;4871078;29;21725;-84
2021/06/15 03:36:58;;;;;;;15.35;1.80;;;13.80;91.40;;;;;;4856065;29;20642;-82
2021/06/15 03:39:26;;;;;;;11.38;1.55;;;13.80;91.30;;;;;;4857720;29;20052;-83
2021/06/15 03:41:56;;;;;;;9.23;1.70;;;13.80;91.50;;;;;;4841462;29;20109;-81
2021/06/15 03:44:22;;;;;;;14.52;1.67;;;13.80;91.50;;;;;;4873819;29;20041;-82
2021/06/15 03:46:55;;;;;;;10.05;1.85;;;13.80;91.60;;;;;;4854053;29;20172;-83
2021/06/15 03:49:23;;;;;;;13.40;1.67;;;13.80;91.80;;;;;;4870021;29;20049;-83
2021/06/15 03:51:53;;;;;;;9.93;1.40;;;13.80;91.70;;;;;;4858005;29;20078;-84
2021/06/15 03:54:21;;;;;;;15.82;2.10;;;13.80;91.80;;;;;;4871003;29;20048;-84
2021/06/15 03:56:50;;;;;;;9.93;2.20;;;13.80;91.90;;;;;;4855840;29;20072;-83
2021/06/15 03:59:26;;;;;;;11.38;1.73;;;13.80;91.90;;;;;;4867245;29;20135;-83
2021/06/15 04:01:56;;;;;;;11.98;1.63;;;13.80;91.90;;;;;;4855309;29;20056;-81
2021/06/15 04:04:23;;;;;;;10.02;2.03;;;13.90;91.90;;;;;;4883270;29;20049;-83
2021/06/15 04:06:51;;;;;;;10.93;1.95;;;13.90;91.90;;;;;;4853697;29;20326;-84
2021/06/15 04:09:23;;;;;;;10.50;1.90;;;13.90;91.90;;;;;;4874340;29;20497;-85
2021/06/15 04:11:52;;;;;;;10.10;2.20;;;13.90;92.00;;;;;;4873647;29;20044;-85
2021/06/15 04:14:19;;;;;;;11.15;1.83;;;14.00;91.90;;;;;;4870894;29;20137;-84
2021/06/15 04:16:47;;;;;;;19.60;2.35;;;14.00;91.80;;;;;;4851381;29;20507;-80
2021/06/15 04:19:18;;;;;;;16.90;2.00;;;13.90;91.90;;;;;;4856301;29;20048;-85
2021/06/15 04:21:46;;;;;;;9.00;1.88;;;14.00;91.80;;;;;;4871518;29;20040;-84
2021/06/15 04:24:16;;;;;;;14.60;2.20;;;14.10;91.80;;;;;;4857897;29;20080;-82
2021/06/15 04:26:42;;;;;;;10.88;2.13;;;14.10;91.70;;;;;;4871482;29;20032;-84
2021/06/15 04:29:14;;;;;;;15.32;2.20;;;14.10;91.70;;;;;;4881255;29;20045;-84
2021/06/15 04:31:41;;;;;;;13.38;2.13;;;14.10;91.80;;;;;;4871976;29;20448;-83
2021/06/15 04:34:16;;;;;;;15.93;2.30;;;14.10;91.80;;;;;;4862537;29;20036;-84
2021/06/15 04:36:44;;;;;;;13.15;2.20;;;14.10;91.80;;;;;;4893429;29;20355;-84
2021/06/15 04:39:37;;;;;;;11.95;2.22;;;14.20;91.70;;;;;;4883218;29;20058;-89
2021/06/15 04:42:13;;;;;;;16.67;2.20;;;14.20;91.70;;;;;;4906056;29;20064;-90
2021/06/15 04:44:52;;;;;;;8.73;2.05;;;14.20;91.70;;;;;;4901146;29;20053;-86
2021/06/15 04:47:24;;;;;;;11.63;2.17;;;14.20;91.60;;;;;;4889630;29;20107;-83
2021/06/15 04:49:56;;;;;;;14.20;2.45;;;14.30;91.60;;;;;;4883575;29;20045;-86
2021/06/15 04:52:26;;;;;;;15.13;2.08;;;14.30;91.50;;;;;;4875542;29;20060;-88
2021/06/15 04:54:53;;;;;;;14.27;2.22;;;14.30;91.40;;;;;;4892926;29;20033;-89
2021/06/15 04:57:29;;;;;;;11.90;2.00;;;14.40;91.60;;;;;;4895791;29;20034;-82
2021/06/15 05:00:00;;;;;;;17.08;2.83;;;14.40;91.50;;;;;;4896462;29;20036;-91
2021/06/15 05:02:27;;;;;;;19.42;3.00;;;14.40;91.40;;;;;;4895391;29;20043;-86
2021/06/15 05:04:53;;;;;;;12.30;2.30;;;14.50;91.40;;;;;;4900361;29;20060;-87
2021/06/15 05:07:25;;;;;;;24.83;2.97;;;14.50;91.40;;;;;;4881309;29;20045;-87
2021/06/15 05:09:58;;;;;;;14.45;2.22;;;14.60;91.30;;;;;;4876346;29;20049;-87
2021/06/15 05:12:38;;;;;;;17.55;2.70;;;14.60;91.30;;;;;;4875977;29;20033;-83
2021/06/15 05:15:08;;;;;;;11.18;2.00;;;14.70;91.30;;;;;;4891347;29;20047;-88
2021/06/15 05:17:35;;;;;;;12.63;1.80;;;14.70;91.20;;;;;;4894401;29;20043;-87
2021/06/15 05:20:03;;;;;;;14.18;2.40;;;14.70;91.00;;;;;;4895435;29;20514;-83
2021/06/15 05:22:31;;;;;;;12.75;2.72;;;14.80;90.90;;;;;;4860957;29;20083;-86
2021/06/15 05:25:03;;;;;;;15.13;2.30;;;14.80;90.80;;;;;;4894025;29;20063;-90
2021/06/15 05:27:33;;;;;;;18.85;3.05;;;14.90;90.90;;;;;;4872577;29;20571;-85
2021/06/15 05:30:05;;;;;;;13.63;2.63;;;14.90;90.70;;;;;;4893932;29;20039;-81
2021/06/15 05:32:32;;;;;;;13.05;2.33;;;14.90;90.50;;;;;;4881798;29;20131;-86
2021/06/15 05:34:59;;;;;;;11.93;2.40;;;15.00;90.50;;;;;;4883980;29;20088;-84
2021/06/15 05:37:25;;;;;;;12.05;2.10;;;15.00;90.50;;;;;;4891134;29;20064;-86
2021/06/15 05:39:51;;;;;;;13.07;2.28;;;15.10;90.40;;;;;;4877311;29;20416;-88
2021/06/15 05:42:17;;;;;;;16.10;2.67;;;15.10;90.20;;;;;;4870530;29;20053;-88
2021/06/15 05:44:43;;;;;;;12.02;2.33;;;15.20;90.30;;;;;;4885502;29;20580;-83
2021/06/15 05:47:10;;;;;;;15.48;2.17;;;15.30;90.00;;;;;;4862801;29;20040;-87
2021/06/15 05:49:36;;;;;;;16.33;2.83;;;15.30;90.00;;;;;;4864148;29;20077;-88
2021/06/15 05:52:08;;;;;;;16.63;2.22;;;15.40;89.50;;;;;;4870564;29;20045;-88
2021/06/15 05:54:35;;;;;;;12.55;2.25;;;15.40;88.40;;;;;;4885290;29;20119;-86
2021/06/15 05:57:01;;;;;;;13.65;2.70;;;15.50;88.10;;;;;;4865481;29;20048;-86
2021/06/15 05:59:27;;;;;;;12.55;2.47;;;15.40;88.00;;;;;;4869721;29;20048;-86
2021/06/15 06:01:54;;;;;;;17.30;2.85;;;15.50;88.10;;;;;;4853104;29;20053;-85
2021/06/15 06:04:22;;;;;;;14.18;2.42;;;15.50;87.80;;;;;;4877857;29;20040;-85
2021/06/15 06:09:41;;;;;;;16.08;2.50;;;15.60;86.30;;;;;;4878084;29;20032;-84
2021/06/15 06:12:09;;;;;;;14.85;2.88;;;15.70;86.10;;;;;;4864498;29;20480;-86
2021/06/15 06:14:35;;;;;;;12.23;2.20;;;15.70;85.90;;;;;;4877939;29;20036;-86
2021/06/15 06:17:03;;;;;;;13.50;2.22;;;15.70;85.60;;;;;;4876399;29;20051;-84
2021/06/15 06:19:30;;;;;;;18.40;3.05;;;15.80;85.50;;;;;;4852152;29;20056;-86
2021/06/15 06:21:56;;;;;;;13.18;2.45;;;15.80;85.30;;;;;;4868647;29;20059;-84
2021/06/15 06:24:29;;;;;;;17.25;3.03;;;15.90;85.50;;;;;;4867628;29;20055;-86
2021/06/15 06:26:54;;;;;;;;;;;16.00;85.20;;;;;;4864355;29;20131;-85
2021/06/15 06:29:21;;;;;;;20.92;3.03;;;16.10;83.50;;;;;;4852241;29;20762;-83
2021/06/15 06:31:48;;;;;;;14.93;2.65;;;16.20;84.10;;;;;;4878568;29;20033;-83
2021/06/15 06:34:14;;;;;;;9.65;2.20;;;16.30;83.40;;;;;;4844444;29;20063;-84
2021/06/15 06:36:42;;;;;;;16.58;2.30;;;16.30;83.00;;;;;;4878722;29;20041;-85
2021/06/15 06:39:08;;;;;;;20.90;2.78;;;16.40;82.10;;;;;;4873344;29;20418;-85
2021/06/15 06:41:35;;;;;;;21.35;2.80;;;16.40;82.30;;;;;;4864442;29;20055;-84
2021/06/15 06:44:01;;;;;;;14.80;2.30;;;16.50;81.80;;;;;;4881639;29;20043;-84
2021/06/15 06:46:27;;;;;;;15.20;2.63;;;16.60;81.60;;;;;;4863224;29;20195;-84
2021/06/15 06:48:53;;;;;;;16.48;4.72;;;16.70;81.60;;;;;;4844973;29;21008;-84
2021/06/15 06:51:19;;;;;;;13.27;2.97;;;16.80;81.20;;;;;;4857858;29;20466;-85
2021/06/15 06:53:45;;;;;;;13.15;2.40;;;16.90;80.60;;;;;;4858737;29;20044;-84
2021/06/15 06:56:11;;;;;;;15.75;2.78;;;17.00;79.90;;;;;;4859272;29;21524;-84
2021/06/15 06:58:37;;;;;;;10.35;2.30;;;17.00;79.40;;;;;;4875011;29;20041;-89
2021/06/15 07:01:04;;;;;;;15.93;2.20;;;17.10;79.00;;;;;;4860537;29;20679;-84
2021/06/15 07:03:30;;;;;;;15.13;2.28;;;17.10;78.50;;;;;;4886580;29;20309;-83
2021/06/15 07:05:56;;;;;;;14.95;3.08;;;17.10;78.00;;;;;;4881338;29;20041;-84
2021/06/15 07:08:24;;;;;;;15.52;2.83;;;17.20;78.20;;;;;;4844060;29;20543;-84
2021/06/15 07:10:49;;;;;;;15.45;2.58;;;17.20;78.00;;;;;;4877780;29;20055;-84
2021/06/15 07:13:15;;;;;;;17.92;2.33;;;17.20;77.80;;;;;;4860283;29;20029;-84
2021/06/15 07:15:41;;;;;;;13.73;3.50;;;17.10;77.90;;;;;;4864154;29;20036;-86
2021/06/15 07:18:08;;;;;;;12.20;3.03;;;17.00;78.00;;;;;;4856777;29;20131;-84
2021/06/15 07:20:34;;;;;;;14.48;2.38;;;16.90;78.20;;;;;;4857016;29;20042;-85
2021/06/15 07:23:00;;;;;;;11.00;2.15;;;16.80;78.20;;;;;;4848543;29;20048;-87
2021/06/15 07:25:26;;;;;;;12.35;2.22;;;16.90;78.50;;;;;;4861572;29;20045;-86
2021/06/15 07:28:12;;;;;;;10.88;2.30;;;17.00;77.90;;;;;;4865412;29;20172;-87
2021/06/15 07:30:50;;;;;;;14.35;2.72;;;17.30;77.20;;;;;;4853979;29;20041;-85
2021/06/15 07:33:36;;;;;;;11.20;2.20;;;17.50;76.60;;;;;;4861230;29;20461;-86
2021/06/15 07:36:22;;;;;;;15.63;2.78;;;17.70;76.50;;;;;;4846923;29;20405;-85
2021/06/15 07:39:08;;;;;;;7.43;1.88;;;17.90;75.80;;;;;;4866296;29;20064;-85
2021/06/15 07:41:54;;;;;;;15.02;3.38;;;18.00;75.80;;;;;;4855069;29;20143;-85
2021/06/15 07:44:40;;;;;;;15.05;2.78;;;18.20;74.20;;;;;;4839857;29;20172;-83
2021/06/15 07:47:06;;;;;;;11.25;2.20;;;18.20;72.40;;;;;;4876903;29;20041;-85
2021/06/15 07:49:52;;;;;;;10.23;2.05;;;18.30;71.50;;;;;;4865039;29;20063;-83
2021/06/15 07:52:27;;;;;;;9.98;1.88;;;18.20;70.10;;;;;;4866478;29;20327;-86
2021/06/15 07:55:14;;;;;;;12.35;2.38;;;18.20;70.20;;;;;;4857624;29;20128;-84
2021/06/15 07:58:00;;;;;;;10.07;1.77;;;18.20;69.10;;;;;;4886183;29;20323;-86
2021/06/15 08:00:46;;;;;;;13.65;2.33;;;17.90;68.60;;;;;;4861942;29;20056;-87
2021/06/15 08:03:12;;;;;;;12.25;2.03;;;17.70;70.40;;;;;;4872865;29;20037;-87
2021/06/15 08:05:58;;;;;;;16.10;2.22;;;17.60;71.30;;;;;;4876686;29;20052;-87
2021/06/15 08:08:24;;;;;;;12.98;2.20;;;17.60;71.80;;;;;;4852706;29;20053;-87
2021/06/15 08:11:10;;;;;;;12.25;2.53;;;17.80;72.30;;;;;;4870110;29;20148;-84
2021/06/15 08:13:36;;;;;;;12.70;2.20;;;18.00;71.40;;;;;;4886010;29;20131;-87
2021/06/15 08:16:03;;;;;;;11.50;2.42;;;18.10;70.50;;;;;;4870525;29;20413;-86
2021/06/15 08:18:29;;;;;;;12.40;2.38;;;18.30;70.40;;;;;;4887258;29;20044;-83
2021/06/15 08:20:57;;;;;;;10.75;2.25;;;18.30;69.70;;;;;;4860533;29;20060;-85
2021/06/15 08:23:24;;;;;;;10.48;2.47;;;18.30;69.20;;;;;;4889051;29;20032;-86
2021/06/15 08:26:10;;;;;;;12.75;2.38;;;18.40;70.20;;;;;;4861329;29;20044;-84
2021/06/15 08:28:36;;;;;;;12.30;2.50;;;18.50;70.00;;;;;;4873022;29;20047;-87
2021/06/15 08:31:22;;;;;;;13.68;2.20;;;18.60;68.30;;;;;;4863912;29;20412;-84
2021/06/15 08:33:48;;;;;;;8.13;1.73;;;18.60;67.80;;;;;;4872336;29;20084;-85
2021/06/15 08:36:14;;;;;;;8.82;2.00;;;18.60;67.70;;;;;;4888923;29;20376;-87
2021/06/15 08:39:03;;;;;;;10.32;2.08;;;18.60;67.50;;;;;;4862500;29;20373;-84
2021/06/15 08:41:30;;;;;;;15.05;2.75;;;18.60;67.50;;;;;;4858690;29;20064;-84
2021/06/15 08:43:57;;;;;;;7.45;1.60;;;18.60;67.50;;;;;;4887028;29;20043;-87
2021/06/15 08:46:22;;;;;;;13.68;2.50;;;18.70;66.90;;;;;;4869883;29;20112;-85
2021/06/15 08:48:48;;;;;;;11.38;2.28;;;18.70;67.50;;;;;;4884789;29;20181;-81
2021/06/15 08:51:14;;;;;;;8.27;1.83;;;18.70;67.60;;;;;;4856987;29;20057;-86
2021/06/15 08:53:40;;;;;;;9.85;2.38;;;18.60;67.40;;;;;;4891063;29;20809;-86
2021/06/15 08:56:21;;;;;;;10.05;2.22;;;18.50;69.30;;;;;;4877377;29;20108;-86
2021/06/15 08:58:59;;;;;;;10.32;2.15;;;18.50;69.80;;;;;;4887702;29;20743;-85
2021/06/15 09:01:25;;;;;;;12.90;2.35;;;18.50;68.40;;;;;;4888791;29;20048;-85
2021/06/15 09:03:52;;;;;;;14.43;2.95;;;18.50;67.80;;;;;;4855420;29;20048;-85
2021/06/15 09:06:18;;;;;;;9.48;2.20;;;18.40;67.60;;;;;;4888796;29;20064;-84
2021/06/15 09:09:03;;;;;;;12.57;2.38;;;18.30;67.20;;;;;;4870584;29;20095;-85
2021/06/15 09:11:55;;;;;;;12.07;2.17;;;18.20;66.60;;;;;;4886847;29;20276;-85
2021/06/15 09:14:40;;;;;;;11.50;2.20;;;18.30;67.00;;;;;;4905972;29;20127;-88
2021/06/15 09:17:09;;;;;;;7.60;2.10;;;18.40;68.20;;;;;;4882096;29;20431;-84
2021/06/15 09:19:38;;;;;;;12.43;3.03;;;18.50;67.40;;;;;;4888516;29;20081;-87
2021/06/15 09:22:05;;;;;;;13.23;2.50;;;18.60;66.80;;;;;;4885379;29;20044;-85
2021/06/15 09:24:31;;;;;;;13.98;2.53;;;18.70;66.90;;;;;;4873638;29;20474;-85
2021/06/15 09:27:05;;;;;;;13.98;2.75;;;18.70;67.10;;;;;;4868084;29;20055;-85
2021/06/15 09:29:45;;;;;;;9.60;2.13;;;18.80;66.60;;;;;;4881361;29;20488;-87
2021/06/15 09:32:42;;;;;;;13.23;2.95;;;18.80;65.50;;;;;;4887339;29;20052;-85
2021/06/15 09:35:14;;;;;;;13.40;2.50;;;18.70;64.60;;;;;;4888468;29;20048;-85
2021/06/15 09:37:50;;;;;;;;;;;18.70;65.50;;;;;;4885730;29;20388;-86
2021/06/15 09:40:23;;;;;;;14.07;2.47;;;18.70;65.10;;;;;;4888379;29;19947;-86
2021/06/15 09:42:54;;;;;;;10.88;2.78;;;18.80;65.70;;;;;;4882571;29;20056;-85
2021/06/15 09:45:24;;;;;;;9.75;2.00;;;18.80;65.90;;;;;;4882093;29;20036;-81
2021/06/15 09:47:51;;;;;;;14.48;2.60;;;19.00;66.50;;;;;;4884241;29;20048;-82
2021/06/15 09:50:21;;;;;;;11.07;1.95;;;19.00;64.90;;;;;;4884499;29;20544;-86
2021/06/15 09:52:47;;;;;;;9.63;1.95;;;19.00;64.90;;;;;;4866475;29;20036;-84
2021/06/15 09:55:13;;;;;;;8.40;1.77;;;19.10;64.60;;;;;;4867203;29;20039;-84
2021/06/15 09:57:45;;;;;;;9.77;1.88;;;19.10;65.10;;;;;;4880453;29;20041;-84
2021/06/15 10:00:16;;;;;;;10.00;2.03;;;19.10;65.10;;;;;;4886277;29;20531;-84
2021/06/15 10:02:59;;;;;;;10.07;2.08;;;19.10;65.00;;;;;;4884794;29;20327;-85
2021/06/15 10:05:35;;;;;;;17.10;2.55;;;19.00;64.90;;;;;;4885048;29;20131;-85
2021/06/15 10:08:04;;;;;;;13.57;2.70;;;19.00;64.80;;;;;;4882490;29;20033;-85
2021/06/15 10:10:36;;;;;;;12.27;1.98;;;19.00;64.50;;;;;;4864097;29;20567;-85
2021/06/15 10:13:03;;;;;;;9.25;1.98;;;19.00;64.20;;;;;;4880693;29;20493;-86
2021/06/15 10:15:30;;;;;;;6.18;1.90;;;19.10;63.60;;;;;;4864465;29;20048;-87
2021/06/15 10:17:57;;;;;;;6.40;1.73;;;19.10;63.30;;;;;;4855560;29;20044;-86
2021/06/15 10:20:25;;;;;;;7.72;2.05;;;19.10;63.60;;;;;;4880375;29;20132;-86
2021/06/15 10:22:53;;;;;;;8.70;1.83;;;19.10;63.80;;;;;;4880674;29;20048;-85
2021/06/15 10:25:21;;;;;;;10.95;2.08;;;19.20;63.80;;;;;;4877599;29;21717;-87
2021/06/15 10:27:49;;;;;;;6.03;1.90;;;19.20;64.10;;;;;;4893417;29;20522;-87
2021/06/15 10:30:17;;;;;;;10.70;1.90;;;19.10;64.30;;;;;;4887312;29;20032;-87
2021/06/15 10:32:51;;;;;;;7.22;1.92;;;19.20;64.00;;;;;;4883973;29;20041;-85
2021/06/15 10:35:45;;;;;;;8.60;1.92;;;19.20;62.60;;;;;;4884928;29;20044;-86
2021/06/15 10:38:16;;;;;;;8.75;2.00;;;19.30;62.10;;;;;;4899969;29;20055;-86
2021/06/15 10:40:46;;;;;;;8.13;1.60;;;19.20;61.30;;;;;;4899192;29;20056;-85
2021/06/15 10:43:21;;;;;;;10.25;2.15;;;19.20;60.80;;;;;;4897862;29;20500;-86
2021/06/15 10:45:52;;;;;;;12.18;2.40;;;19.30;61.40;;;;;;4880869;29;20043;-83
2021/06/15 10:48:18;;;;;;;13.50;2.33;;;19.40;62.10;;;;;;4878210;29;20515;-86
2021/06/15 10:50:46;;;;;;;10.88;2.15;;;19.40;62.70;;;;;;4880137;29;20048;-86
2021/06/15 10:53:17;;;;;;;8.65;1.80;;;19.40;62.30;;;;;;4873677;29;20104;-86
2021/06/15 10:55:49;;;;;;;7.43;1.65;;;19.50;62.20;;;;;;4870928;29;20704;-83
2021/06/15 10:58:16;;;;;;;;;;;19.60;62.20;;;;;;4882616;29;20438;-87
2021/06/15 11:00:52;;;;;;;9.32;2.10;;;19.70;61.60;;;;;;4878968;29;20391;-85
2021/06/15 11:03:19;;;;;;;8.63;2.10;;;19.60;61.00;;;;;;4862657;29;20032;-85
2021/06/15 11:05:53;;;;;;;6.63;2.08;;;19.70;60.20;;;;;;4875421;29;20036;-87
2021/06/15 11:08:27;;;;;;;9.40;1.58;;;19.70;60.10;;;;;;4877998;29;20045;-86
2021/06/15 11:10:56;;;;;;;10.23;2.22;;;19.60;59.60;;;;;;4867129;29;20071;-86
2021/06/15 11:13:46;;;;;;;10.98;1.70;;;19.60;59.80;;;;;;4884418;29;20040;-87
2021/06/15 11:16:49;;;;;;;7.80;1.95;;;19.60;60.80;;;;;;4897937;29;20036;-85
2021/06/15 11:19:17;;;;;;;8.05;1.77;;;19.70;59.70;;;;;;4862005;29;20041;-85
2021/06/15 11:21:51;;;;;;;10.65;2.33;;;19.70;60.40;;;;;;4878716;29;20057;-82
2021/06/15 11:24:28;;;;;;;11.63;2.20;;;19.80;60.60;;;;;;4879218;29;20044;-84
2021/06/15 11:26:59;;;;;;;8.15;2.10;;;19.90;60.50;;;;;;4873252;29;20283;-86
2021/06/15 11:29:29;;;;;;;9.23;1.70;;;19.90;59.90;;;;;;4873787;29;20044;-86
2021/06/15 11:32:18;;;;;;;7.38;1.65;;;19.90;60.10;;;;;;4864217;29;20495;-85
2021/06/15 11:34:53;;;;;;;8.88;2.05;;;19.90;58.20;;;;;;4882745;29;20389;-83
2021/06/15 11:37:23;;;;;;;10.10;2.22;;;19.90;58.70;;;;;;4904683;29;20037;-87
2021/06/15 11:39:50;;;;;;;7.38;1.80;;;19.90;60.00;;;;;;4885222;29;20040;-84
2021/06/15 11:42:22;;;;;;;10.40;1.67;;;19.90;60.20;;;;;;4885474;29;20120;-87
2021/06/15 11:44:56;;;;;;;7.43;1.90;;;20.00;59.10;;;;;;4876505;29;20194;-83
2021/06/15 11:47:40;;;;;;;7.65;2.22;;;20.10;58.80;;;;;;4875430;29;20039;-85
2021/06/15 11:50:21;;;;;;;10.60;1.65;;;20.20;58.20;;;;;;4873800;29;20044;-85
2021/06/15 11:52:50;;;;;;;9.27;2.55;;;20.20;58.40;;;;;;4857918;29;20136;-85
2021/06/15 11:55:16;;;;;;;10.20;1.83;;;20.30;57.80;;;;;;4874142;29;20036;-85
2021/06/15 11:57:43;;;;;;;7.15;1.85;;;20.20;58.50;;;;;;4878547;29;20053;-85
2021/06/15 12:00:15;;;;;;;9.60;1.85;;;20.30;57.90;;;;;;4884512;29;20064;-85
2021/06/15 12:02:41;;;;;;;9.02;2.08;;;20.30;57.40;;;;;;4878853;29;20123;-84
2021/06/15 12:05:16;;;;;;;6.90;1.77;;;20.30;57.50;;;;;;4878156;29;20449;-85
2021/06/15 12:07:53;;;;;;;6.43;1.52;;;20.30;57.30;;;;;;4871935;29;20037;-84
2021/06/15 12:10:23;;;;;;;7.85;1.92;;;20.30;57.20;;;;;;4880731;29;20587;-84
2021/06/15 12:12:57;;;;;;;15.07;2.13;;;20.20;56.60;;;;;;4863588;29;20096;-84
2021/06/15 12:16:01;;;;;;;7.32;1.90;;;20.30;56.50;;;;;;4883566;29;20127;-86
2021/06/15 12:18:27;;;;;;;7.88;2.25;;;20.30;56.30;;;;;;4882411;29;20083;-83
2021/06/15 12:21:22;;;;;;;7.88;1.83;;;20.30;57.10;;;;;;4906357;29;20145;-88
2021/06/15 12:23:52;;;;;;;12.65;2.00;;;20.30;58.60;;;;;;4885256;29;20420;-83
2021/06/15 12:26:21;;;;;;;8.90;1.80;;;20.30;57.80;;;;;;4885053;29;20839;-86
2021/06/15 12:29:01;;;;;;;6.97;1.77;;;20.30;57.30;;;;;;4879777;29;20428;-86
2021/06/15 12:31:47;;;;;;;5.47;1.40;;;20.30;56.80;;;;;;4900405;29;20048;-84
2021/06/15 12:34:17;;;;;;;15.00;4.65;;;20.40;57.30;;;;;;4886984;29;20037;-84
2021/06/15 12:36:46;;;;;;;12.07;2.30;;;20.40;57.00;;;;;;4885368;29;20048;-88
2021/06/15 12:39:39;;;;;;;9.52;1.85;;;20.30;56.90;;;;;;4881867;29;20040;-87
2021/06/15 12:42:13;;;;;;;8.85;2.03;;;20.30;57.00;;;;;;4879091;29;20132;-88
2021/06/15 12:44:42;;;;;;;14.18;2.05;;;20.30;56.30;;;;;;4880069;29;20041;-87
2021/06/15 12:47:14;;;;;;;6.78;1.60;;;20.40;56.90;;;;;;4878426;29;20041;-85
2021/06/15 12:49:50;;;;;;;9.93;2.10;;;20.40;56.90;;;;;;4877133;29;20504;-87
2021/06/15 12:52:17;;;;;;;8.25;1.77;;;20.50;55.20;;;;;;4878501;29;20811;-87
2021/06/15 12:54:45;;;;;;;8.70;1.50;;;20.40;56.50;;;;;;4880572;29;20402;-88
2021/06/15 12:57:20;;;;;;;5.00;1.90;;;20.40;56.50;;;;;;4868853;29;20089;-87
2021/06/15 13:00:00;;;;;;;10.18;1.83;;;20.40;56.40;;;;;;4866903;29;20747;-84
2021/06/15 13:02:27;;;;;;;5.15;1.60;;;20.50;56.00;;;;;;4863447;29;20041;-87
2021/06/15 13:05:01;;;;;;;8.57;1.75;;;20.60;55.60;;;;;;4869322;29;20265;-87
2021/06/15 13:07:29;;;;;;;7.90;1.80;;;20.60;55.50;;;;;;4878624;29;20048;-86